createdAt,value
2023-02-07T00:04:18.202Z,10.33
2023-02-07T00:09:40.411Z,9.37
2023-02-07T00:15:02.892Z,10.87
2023-02-07T00:20:25.302Z,10.60
2023-02-07T00:25:47.646Z,12.93
2023-02-07T00:31:17.241Z,12.17
2023-02-07T00:36:40.467Z,10.97
2023-02-07T00:42:02.967Z,10.63
2023-02-07T00:47:25.360Z,9.87
2023-02-07T00:52:47.890Z,11.03
2023-02-07T00:58:10.152Z,8.60
2023-02-07T01:03:32.930Z,9.90
2023-02-07T01:08:59.834Z,10.80
2023-02-07T01:14:23.298Z,8.03
2023-02-07T01:19:45.655Z,9.87
2023-02-07T01:25:09.046Z,9.63
2023-02-07T01:30:32.468Z,8.20
2023-02-07T01:35:54.979Z,8.23
2023-02-07T01:41:17.279Z,9.33
2023-02-07T01:46:39.722Z,9.27
2023-02-07T01:52:25.988Z,8.13
2023-02-07T01:57:49.925Z,7.00
2023-02-07T02:03:12.388Z,7.70
2023-02-07T02:08:34.520Z,8.23
2023-02-07T02:14:06.087Z,7.60
2023-02-07T02:20:10.816Z,7.30
2023-02-07T02:26:12.238Z,7.90
2023-02-07T02:31:43.729Z,6.37
2023-02-07T02:37:05.944Z,7.73
2023-02-07T02:42:53.287Z,7.47
2023-02-07T02:48:17.524Z,6.87
2023-02-07T02:53:40.247Z,8.43
2023-02-07T02:59:09.381Z,7.70
2023-02-07T03:04:34.163Z,7.27
2023-02-07T03:10:18.182Z,6.97
2023-02-07T03:15:54.737Z,7.47
2023-02-07T03:21:37.040Z,6.70
2023-02-07T03:27:04.177Z,6.40
2023-02-07T03:32:34.939Z,7.40
2023-02-07T03:38:00.353Z,7.00
2023-02-07T03:43:27.186Z,6.87
2023-02-07T03:48:49.311Z,7.77
2023-02-07T03:54:11.985Z,8.00
2023-02-07T03:59:34.874Z,7.87
2023-02-07T04:04:57.246Z,6.97
2023-02-07T04:10:19.595Z,7.73
2023-02-07T04:15:42.064Z,7.80
2023-02-07T04:21:06.842Z,8.23
2023-02-07T04:26:29.312Z,7.60
2023-02-07T04:31:51.584Z,7.07
2023-02-07T04:37:14.093Z,8.07
2023-02-07T04:42:36.405Z,6.73
2023-02-07T04:47:58.583Z,7.67
2023-02-07T04:53:21.071Z,7.70
2023-02-07T04:58:43.555Z,8.83
2023-02-07T05:04:06.182Z,7.47
2023-02-07T05:09:28.419Z,8.60
2023-02-07T05:14:50.748Z,6.80
2023-02-07T05:20:13.035Z,6.33
2023-02-07T05:25:36.042Z,6.87
2023-02-07T05:30:58.333Z,8.17
2023-02-07T05:36:20.480Z,7.03
2023-02-07T05:41:42.979Z,7.77
2023-02-07T05:47:05.369Z,7.07
2023-02-07T05:52:27.599Z,7.20
2023-02-07T05:57:49.693Z,6.07
2023-02-07T06:03:12.255Z,7.23
2023-02-07T06:08:34.347Z,7.07
2023-02-07T06:13:57.082Z,6.80
2023-02-07T06:19:19.242Z,8.03
2023-02-07T06:24:48.736Z,7.27
2023-02-07T06:30:12.419Z,8.90
2023-02-07T06:35:34.816Z,8.07
2023-02-07T06:40:56.999Z,7.27
2023-02-07T06:46:19.391Z,7.70
2023-02-07T06:51:41.703Z,8.97
2023-02-07T06:57:03.910Z,7.10
2023-02-07T07:02:26.422Z,9.47
2023-02-07T07:07:49.345Z,8.20
2023-02-07T07:13:11.789Z,8.00
2023-02-07T07:18:34.370Z,8.90
2023-02-07T07:23:56.966Z,8.77
2023-02-07T07:29:19.613Z,9.17
2023-02-07T07:34:41.880Z,8.43
2023-02-07T07:40:04.928Z,8.67
2023-02-07T07:45:27.749Z,7.97
2023-02-07T07:50:50.313Z,7.93
2023-02-07T07:56:12.769Z,7.57
2023-02-07T08:01:35.485Z,8.00
2023-02-07T08:06:58.014Z,8.53
2023-02-07T08:12:20.505Z,8.07
2023-02-07T08:17:42.834Z,9.60
2023-02-07T08:23:05.587Z,9.00
2023-02-07T08:28:29.371Z,8.60
2023-02-07T08:33:51.984Z,9.23
2023-02-07T08:39:14.600Z,9.50
2023-02-07T08:44:37.599Z,10.03
2023-02-07T08:49:59.863Z,9.80
2023-02-07T08:55:22.300Z,11.20
2023-02-07T09:00:44.688Z,12.30
2023-02-07T09:06:07.268Z,11.57
2023-02-07T09:11:29.893Z,12.17
2023-02-07T09:16:52.137Z,13.13
2023-02-07T09:22:14.937Z,13.63
2023-02-07T09:27:38.309Z,12.20
2023-02-07T09:33:00.944Z,14.03
2023-02-07T09:38:25.876Z,13.90
2023-02-07T09:44:10.753Z,13.67
2023-02-07T09:49:39.137Z,14.07
2023-02-07T09:55:04.747Z,14.73
2023-02-07T10:00:30.828Z,13.00
2023-02-07T10:06:09.176Z,12.60
2023-02-07T10:11:55.050Z,13.93
2023-02-07T10:17:45.331Z,12.93
2023-02-07T10:23:28.133Z,12.83
2023-02-07T10:29:09.565Z,13.23
2023-02-07T10:34:37.014Z,12.30
2023-02-07T10:40:17.012Z,12.13
2023-02-07T10:45:46.573Z,11.87
2023-02-07T10:51:26.297Z,12.93
2023-02-07T10:56:51.544Z,12.10
2023-02-07T11:02:37.655Z,12.37
2023-02-07T11:08:19.641Z,12.33
2023-02-07T11:13:50.903Z,11.70
2023-02-07T11:19:20.690Z,9.90
2023-02-07T11:24:43.751Z,9.37
2023-02-07T11:30:19.249Z,9.63
2023-02-07T11:36:22.950Z,9.90
2023-02-07T11:41:58.348Z,9.63
2023-02-07T11:47:30.388Z,10.83
2023-02-07T11:52:57.759Z,9.00
2023-02-07T11:58:36.656Z,9.10
2023-02-07T12:04:10.584Z,8.97
2023-02-07T12:09:41.076Z,9.50
2023-02-07T12:15:19.219Z,10.13
2023-02-07T12:21:09.234Z,10.30
2023-02-07T12:26:43.540Z,10.80
2023-02-07T12:32:16.512Z,11.07
2023-02-07T12:38:00.920Z,9.60
2023-02-07T12:43:31.034Z,9.20
2023-02-07T12:49:17.408Z,8.97
2023-02-07T12:54:57.817Z,9.07
2023-02-07T13:00:25.967Z,8.43
2023-02-07T13:06:11.689Z,8.40
2023-02-07T13:11:51.391Z,8.03
2023-02-07T13:17:55.014Z,7.20
2023-02-07T13:23:25.844Z,8.83
2023-02-07T13:28:54.308Z,8.23
2023-02-07T13:34:23.485Z,8.43
2023-02-07T13:39:59.511Z,8.60
2023-02-07T13:45:50.718Z,10.03
2023-02-07T13:51:45.777Z,9.20
2023-02-07T13:57:56.386Z,10.27
2023-02-07T14:03:33.578Z,10.33
2023-02-07T14:09:09.866Z,9.80
2023-02-07T14:14:35.402Z,11.70
2023-02-07T14:20:00.787Z,12.00
2023-02-07T14:25:40.239Z,11.93
2023-02-07T14:31:23.995Z,11.17
2023-02-07T14:36:48.006Z,10.63
2023-02-07T14:42:17.249Z,13.33
2023-02-07T14:47:39.817Z,12.10
2023-02-07T14:53:06.169Z,12.87
2023-02-07T14:58:40.012Z,11.73
2023-02-07T15:04:11.837Z,11.20
2023-02-07T15:09:34.972Z,11.53
2023-02-07T15:14:57.504Z,11.50
2023-02-07T15:20:25.596Z,10.67
2023-02-07T15:25:48.458Z,10.60
2023-02-07T15:31:17.511Z,10.83
2023-02-07T15:36:43.245Z,11.00
2023-02-07T15:42:05.868Z,11.73
2023-02-07T15:47:27.990Z,11.67
2023-02-07T15:52:54.608Z,10.87
2023-02-07T15:58:29.286Z,10.67
2023-02-07T16:03:55.534Z,11.33
2023-02-07T16:09:35.382Z,9.53
2023-02-07T16:14:59.819Z,10.13
2023-02-07T16:20:23.113Z,10.93
2023-02-07T16:25:45.543Z,11.83
2023-02-07T16:31:08.143Z,11.47
2023-02-07T16:36:30.680Z,11.17
2023-02-07T16:42:05.154Z,11.03
2023-02-07T16:47:27.672Z,11.47
2023-02-07T16:52:51.908Z,11.37
2023-02-07T16:58:24.112Z,11.83
2023-02-07T17:03:46.931Z,10.90
2023-02-07T17:09:18.392Z,11.80
2023-02-07T17:14:40.857Z,11.07
2023-02-07T17:20:04.190Z,11.90
2023-02-07T17:25:29.624Z,11.97
2023-02-07T17:30:52.168Z,18.47
2023-02-07T17:36:16.115Z,19.13
2023-02-07T17:41:39.374Z,15.43
2023-02-07T17:47:01.660Z,16.73
2023-02-07T17:52:26.935Z,15.77
2023-02-07T17:57:50.554Z,18.10
2023-02-07T18:03:12.733Z,14.90
2023-02-07T18:08:35.054Z,13.53
2023-02-07T18:13:57.381Z,12.80
2023-02-07T18:19:19.559Z,12.50
2023-02-07T18:24:42.003Z,11.03
2023-02-07T18:30:05.964Z,11.43
2023-02-07T18:35:28.094Z,10.70
2023-02-07T18:40:50.861Z,9.90
2023-02-07T18:46:16.853Z,14.90
2023-02-07T18:51:39.891Z,14.97
2023-02-07T18:57:03.058Z,15.07
2023-02-07T19:02:25.804Z,15.10
2023-02-07T19:07:48.030Z,12.33
2023-02-07T19:13:12.598Z,12.93
2023-02-07T19:18:35.256Z,13.37
2023-02-07T19:23:58.760Z,14.07
2023-02-07T19:29:28.195Z,14.20
2023-02-07T19:34:50.659Z,13.23
2023-02-07T19:40:12.938Z,13.37
2023-02-07T19:45:35.302Z,14.87
2023-02-07T19:51:05.810Z,15.33
2023-02-07T19:56:33.300Z,15.07
2023-02-07T20:01:55.919Z,15.13
2023-02-07T20:07:18.352Z,16.93
2023-02-07T20:12:40.781Z,15.20
2023-02-07T20:18:02.979Z,14.53
2023-02-07T20:23:26.147Z,14.47
2023-02-07T20:28:50.068Z,16.40
2023-02-07T20:34:13.517Z,15.00
2023-02-07T20:39:36.248Z,15.33
2023-02-07T20:44:59.267Z,16.00
2023-02-07T20:50:21.576Z,16.20
2023-02-07T20:55:43.765Z,17.33
2023-02-07T21:01:11.351Z,17.83
2023-02-07T21:06:34.596Z,17.50
2023-02-07T21:11:57.721Z,16.50
2023-02-07T21:17:20.017Z,17.57
2023-02-07T21:22:42.737Z,17.00
2023-02-07T21:28:05.190Z,18.60
2023-02-07T21:33:27.513Z,16.33
2023-02-07T21:38:52.597Z,15.27
2023-02-07T21:44:15.781Z,15.63
2023-02-07T21:49:38.489Z,16.27
2023-02-07T21:55:00.877Z,13.23
2023-02-07T22:00:23.340Z,12.20
2023-02-07T22:05:46.123Z,13.70
2023-02-07T22:11:10.972Z,12.60
2023-02-07T22:16:34.758Z,13.73
2023-02-07T22:21:58.997Z,12.00
2023-02-07T22:27:21.483Z,11.03
2023-02-07T22:32:43.980Z,11.20
2023-02-07T22:38:06.381Z,10.10
2023-02-07T22:43:28.529Z,11.13
2023-02-07T22:48:51.874Z,12.67
2023-02-07T22:54:18.033Z,11.80
2023-02-07T22:59:40.433Z,10.20
2023-02-07T23:05:04.193Z,11.07
2023-02-07T23:10:26.469Z,10.87
2023-02-07T23:15:49.067Z,10.77
2023-02-07T23:21:13.574Z,10.37
2023-02-07T23:26:36.677Z,9.37
2023-02-07T23:31:58.888Z,10.20
2023-02-07T23:37:22.511Z,10.77
2023-02-07T23:42:44.740Z,11.00
2023-02-07T23:48:07.382Z,9.77
2023-02-07T23:53:30.137Z,10.50
2023-02-07T23:58:52.787Z,10.47
